Time;durP1;ratioP1;P1;durP2;ratioP2;P2;SDS_P1;SDS_P2;PMS_P1;PMS_P2;Temp;Humidity;BMP_temperature;BMP_pressure;BME280_temperature;BME280_humidity;BME280_pressure;Samples;Min_cycle;Max_cycle;Signal;HPM_P1;HPM_P2
2022/07/17 00:00:40;;;;;;;2.08;1.10;;;17.70;99.90;;;;;;5080898;28;20037;-57
2022/07/17 00:03:06;;;;;;;3.00;1.20;;;17.60;99.90;;;;;;5080893;28;20380;-58
2022/07/17 00:05:32;;;;;;;5.55;1.27;;;17.50;99.90;;;;;;5080773;28;20043;-58
2022/07/17 00:07:57;;;;;;;2.47;1.15;;;17.40;99.90;;;;;;5081096;28;20032;-58
2022/07/17 00:10:23;;;;;;;3.40;1.30;;;17.40;99.90;;;;;;5081241;28;20056;-58
2022/07/17 00:12:49;;;;;;;3.67;1.23;;;17.30;99.90;;;;;;5081279;28;20028;-58
2022/07/17 00:15:14;;;;;;;3.25;1.25;;;17.30;99.90;;;;;;5081109;28;20040;-63
2022/07/17 00:17:40;;;;;;;5.43;1.40;;;17.20;99.90;;;;;;5080646;28;20040;-58
2022/07/17 00:20:07;;;;;;;1.45;1.23;;;17.20;99.90;;;;;;5080621;28;20384;-58
2022/07/17 00:22:33;;;;;;;2.75;1.10;;;17.20;99.90;;;;;;5080527;28;20032;-57
2022/07/17 00:24:59;;;;;;;3.60;1.50;;;17.10;99.90;;;;;;5080292;28;20300;-57
2022/07/17 00:27:25;;;;;;;3.80;1.50;;;17.10;99.90;;;;;;5080506;28;20028;-57
2022/07/17 00:29:51;;;;;;;5.03;1.50;;;17.10;99.90;;;;;;5080357;28;20067;-58
2022/07/17 00:32:16;;;;;;;3.30;1.20;;;17.10;99.90;;;;;;5080400;28;20040;-58
2022/07/17 00:34:42;;;;;;;7.00;1.65;;;17.20;99.90;;;;;;5080228;28;20400;-58
2022/07/17 00:37:08;;;;;;;2.85;1.30;;;17.20;99.90;;;;;;5080259;28;20056;-59
2022/07/17 00:39:34;;;;;;;4.53;1.65;;;17.30;99.90;;;;;;5080164;28;20048;-58
2022/07/17 00:42:00;;;;;;;4.30;1.80;;;17.20;99.90;;;;;;5080162;28;20054;-58
2022/07/17 00:44:27;;;;;;;4.50;1.50;;;17.10;99.90;;;;;;5080100;28;20387;-58
2022/07/17 00:46:53;;;;;;;3.83;1.40;;;17.00;99.90;;;;;;5080352;28;20036;-58
2022/07/17 00:49:19;;;;;;;2.70;1.40;;;16.90;99.90;;;;;;5080040;28;20040;-58
2022/07/17 00:51:44;;;;;;;4.80;1.80;;;16.80;99.90;;;;;;5079951;28;20392;-57
2022/07/17 00:54:13;;;;;;;6.28;1.80;;;16.80;99.90;;;;;;5080150;28;20036;-57
2022/07/17 00:56:42;;;;;;;7.57;2.08;;;16.90;99.90;;;;;;5079767;28;20048;-58
2022/07/17 00:59:08;;;;;;;2.85;1.38;;;16.90;99.90;;;;;;5079836;28;20086;-57
2022/07/17 01:01:34;;;;;;;2.85;1.48;;;16.90;99.90;;;;;;5079770;28;20032;-57
2022/07/17 01:04:00;;;;;;;3.30;1.60;;;16.80;99.90;;;;;;5078997;28;20028;-58
2022/07/17 01:06:26;;;;;;;4.00;1.58;;;16.80;99.90;;;;;;5079577;28;20090;-58
2022/07/17 01:08:52;;;;;;;7.22;1.80;;;16.70;99.90;;;;;;5079094;28;20032;-58
2022/07/17 01:11:18;;;;;;;5.32;1.52;;;16.70;99.90;;;;;;5079546;28;20048;-58
2022/07/17 01:13:43;;;;;;;4.00;1.73;;;16.60;99.90;;;;;;5079583;28;20079;-58
2022/07/17 01:16:09;;;;;;;5.25;1.60;;;16.50;99.90;;;;;;5079583;28;20032;-58
2022/07/17 01:18:35;;;;;;;5.50;1.65;;;16.60;99.90;;;;;;5079874;28;20419;-58
2022/07/17 01:21:06;;;;;;;4.68;1.70;;;16.60;99.90;;;;;;5079734;28;20063;-58
2022/07/17 01:23:31;;;;;;;6.57;1.92;;;16.60;99.90;;;;;;5079384;28;20037;-58
2022/07/17 01:25:57;;;;;;;4.20;1.77;;;16.50;99.90;;;;;;5079222;28;20041;-58
2022/07/17 01:28:23;;;;;;;5.22;1.63;;;16.50;99.90;;;;;;5079262;28;20152;-58
2022/07/17 01:30:51;;;;;;;4.28;1.52;;;16.50;99.90;;;;;;5079224;28;20032;-58
2022/07/17 01:33:17;;;;;;;4.35;1.80;;;16.50;99.90;;;;;;5079213;28;20040;-59
2022/07/17 01:35:43;;;;;;;4.53;1.80;;;16.50;99.90;;;;;;5079179;28;20074;-58
2022/07/17 01:38:09;;;;;;;4.80;1.55;;;16.50;99.90;;;;;;5078942;28;20068;-58
2022/07/17 01:40:35;;;;;;;5.63;1.83;;;16.50;99.90;;;;;;5079091;28;20039;-58
2022/07/17 01:43:00;;;;;;;6.25;1.70;;;16.50;99.90;;;;;;5079571;28;20044;-58
2022/07/17 01:45:26;;;;;;;2.85;1.58;;;16.40;99.90;;;;;;5079405;28;20025;-58
2022/07/17 01:47:52;;;;;;;2.78;1.58;;;16.40;99.90;;;;;;5078939;28;20151;-58
2022/07/17 01:50:18;;;;;;;5.78;2.17;;;16.30;99.90;;;;;;5078886;28;20107;-59
2022/07/17 01:52:45;;;;;;;5.28;2.17;;;16.30;99.90;;;;;;5078917;28;20020;-58
2022/07/17 01:55:14;;;;;;;7.65;2.10;;;16.30;99.90;;;;;;5078890;28;20038;-58
2022/07/17 01:57:40;;;;;;;4.38;2.05;;;16.30;99.90;;;;;;5078602;28;20060;-57
2022/07/17 02:00:09;;;;;;;6.53;2.28;;;16.40;99.90;;;;;;5078643;28;20273;-57
2022/07/17 02:02:35;;;;;;;4.43;1.98;;;16.50;99.90;;;;;;5078662;28;20045;-59
2022/07/17 02:05:00;;;;;;;4.90;1.63;;;16.40;99.90;;;;;;5061252;28;20386;-59
2022/07/17 02:07:26;;;;;;;8.43;1.90;;;16.30;99.90;;;;;;5078585;28;20040;-60
2022/07/17 02:09:52;;;;;;;5.40;2.10;;;16.20;99.90;;;;;;5078551;28;20037;-59
2022/07/17 02:12:21;;;;;;;5.47;2.00;;;16.10;99.90;;;;;;5078487;28;20336;-59
2022/07/17 02:14:47;;;;;;;4.38;2.03;;;16.10;99.90;;;;;;5078486;28;20028;-59
2022/07/17 02:17:12;;;;;;;4.57;2.25;;;16.00;99.90;;;;;;5078397;28;20037;-59
2022/07/17 02:19:38;;;;;;;4.03;2.05;;;15.90;99.90;;;;;;5078299;28;20029;-59
2022/07/17 02:22:04;;;;;;;5.10;2.08;;;15.80;99.90;;;;;;5076600;28;20116;-59
2022/07/17 02:24:30;;;;;;;5.65;2.40;;;15.90;99.90;;;;;;5078298;28;20043;-59
2022/07/17 02:26:55;;;;;;;4.88;2.30;;;15.90;99.90;;;;;;5077336;28;20055;-59
2022/07/17 02:29:21;;;;;;;6.10;2.42;;;15.80;99.90;;;;;;5078357;28;20038;-59
2022/07/17 02:31:47;;;;;;;3.22;2.15;;;15.80;99.90;;;;;;5078050;28;20028;-58
2022/07/17 02:34:13;;;;;;;4.53;2.22;;;15.80;99.90;;;;;;5078812;28;20321;-59
2022/07/17 02:36:39;;;;;;;6.00;2.22;;;15.70;99.90;;;;;;5078234;28;20344;-59
2022/07/17 02:39:04;;;;;;;5.60;2.10;;;15.70;99.90;;;;;;5077852;28;20066;-59
2022/07/17 02:41:30;;;;;;;4.68;2.25;;;15.80;99.90;;;;;;5077880;28;20382;-59
2022/07/17 02:43:56;;;;;;;8.35;2.90;;;15.70;99.90;;;;;;5077825;28;20400;-58
2022/07/17 02:46:22;;;;;;;4.78;2.20;;;15.70;99.90;;;;;;5077678;28;20124;-58
2022/07/17 02:48:47;;;;;;;4.93;2.38;;;15.60;99.90;;;;;;5077737;28;20025;-59
2022/07/17 02:51:13;;;;;;;4.82;2.10;;;15.50;99.90;;;;;;5077672;28;20078;-58
2022/07/17 02:53:39;;;;;;;7.45;2.35;;;15.40;99.90;;;;;;5076948;28;20385;-59
2022/07/17 02:56:05;;;;;;;6.75;2.22;;;15.40;99.90;;;;;;5077686;28;20117;-59
2022/07/17 02:58:31;;;;;;;4.05;2.28;;;15.40;99.90;;;;;;5077559;28;20107;-58
2022/07/17 03:00:56;;;;;;;6.22;2.53;;;15.40;99.90;;;;;;5077558;28;20418;-58
2022/07/17 03:03:22;;;;;;;4.10;2.80;;;15.50;99.90;;;;;;5077494;28;20039;-58
2022/07/17 03:05:48;;;;;;;3.90;2.00;;;15.50;99.90;;;;;;5077282;28;20056;-59
2022/07/17 03:08:14;;;;;;;6.45;2.35;;;15.50;99.90;;;;;;5077414;28;20037;-58
2022/07/17 03:10:40;;;;;;;5.82;2.28;;;15.40;99.90;;;;;;5077320;28;20029;-58
2022/07/17 03:13:06;;;;;;;7.00;2.30;;;15.40;99.90;;;;;;5076584;28;20020;-58
2022/07/17 03:15:32;;;;;;;4.53;2.17;;;15.30;99.90;;;;;;5077285;28;20054;-59
2022/07/17 03:17:58;;;;;;;4.75;2.58;;;15.30;99.90;;;;;;5077239;28;20115;-58
2022/07/17 03:20:24;;;;;;;4.95;2.47;;;15.20;99.90;;;;;;5077208;28;20464;-58
2022/07/17 03:22:50;;;;;;;6.15;2.53;;;15.10;99.90;;;;;;5077184;28;20093;-58
2022/07/17 03:25:16;;;;;;;4.15;2.33;;;15.20;99.90;;;;;;5077335;28;20028;-59
2022/07/17 03:27:42;;;;;;;4.40;2.25;;;15.20;99.90;;;;;;5077116;28;20033;-58
2022/07/17 03:30:08;;;;;;;4.90;2.33;;;15.20;99.90;;;;;;5077018;28;20127;-59
2022/07/17 03:32:34;;;;;;;5.90;2.28;;;15.20;99.90;;;;;;5076790;28;20065;-59
2022/07/17 03:35:01;;;;;;;4.75;2.63;;;15.30;99.90;;;;;;5077251;28;20048;-59
2022/07/17 03:37:28;;;;;;;8.32;2.72;;;15.20;99.90;;;;;;5076947;28;20040;-59
2022/07/17 03:39:54;;;;;;;4.72;2.20;;;15.20;99.90;;;;;;5076960;28;20045;-59
2022/07/17 03:42:20;;;;;;;5.57;2.58;;;15.20;99.90;;;;;;5076985;28;20094;-59
2022/07/17 03:44:46;;;;;;;4.82;2.38;;;15.20;99.90;;;;;;5076939;28;20051;-59
2022/07/17 03:47:12;;;;;;;4.57;2.20;;;15.40;99.90;;;;;;5077152;28;20037;-59
2022/07/17 03:49:38;;;;;;;4.05;2.60;;;15.20;99.90;;;;;;5077035;28;20369;-59
2022/07/17 03:52:04;;;;;;;6.63;2.40;;;15.30;99.90;;;;;;5077031;28;20052;-59
2022/07/17 03:54:29;;;;;;;4.63;2.53;;;15.20;99.90;;;;;;5076814;28;20324;-59
2022/07/17 03:56:55;;;;;;;3.35;2.50;;;15.20;99.90;;;;;;5076732;28;20086;-63
2022/07/17 03:59:21;;;;;;;5.13;2.67;;;15.10;99.90;;;;;;5076900;28;20304;-59
2022/07/17 04:01:47;;;;;;;5.15;2.30;;;15.10;99.90;;;;;;5077236;28;20090;-59
2022/07/17 04:04:13;;;;;;;5.43;3.00;;;15.10;99.90;;;;;;5076579;28;20119;-59
2022/07/17 04:06:39;;;;;;;4.75;2.40;;;15.00;99.90;;;;;;5076492;28;20337;-59
2022/07/17 04:09:05;;;;;;;5.45;2.58;;;15.00;99.90;;;;;;5076599;28;20385;-59
2022/07/17 04:11:31;;;;;;;3.92;2.70;;;15.00;99.90;;;;;;5076665;28;20116;-59
2022/07/17 04:13:57;;;;;;;5.35;2.80;;;15.00;99.90;;;;;;5076639;28;20036;-59
2022/07/17 04:16:23;;;;;;;4.18;2.50;;;15.00;99.90;;;;;;5076633;28;20339;-59
2022/07/17 04:18:48;;;;;;;4.43;2.78;;;14.90;99.90;;;;;;5076830;28;20408;-59
2022/07/17 04:21:14;;;;;;;5.95;2.88;;;15.00;99.90;;;;;;5077137;28;20032;-59
2022/07/17 04:23:40;;;;;;;6.07;2.72;;;15.00;99.90;;;;;;5076136;28;20033;-59
2022/07/17 04:26:06;;;;;;;5.47;2.70;;;15.00;99.90;;;;;;5077300;28;20044;-59
2022/07/17 04:28:33;;;;;;;4.35;2.75;;;15.00;99.90;;;;;;5076778;28;20097;-59
2022/07/17 04:30:59;;;;;;;5.47;2.70;;;15.00;99.90;;;;;;5075722;28;20044;-59
2022/07/17 04:33:24;;;;;;;5.22;2.47;;;14.90;99.90;;;;;;5076427;28;20416;-59
2022/07/17 04:35:50;;;;;;;7.10;2.70;;;15.00;99.90;;;;;;5076448;28;20392;-59
2022/07/17 04:38:16;;;;;;;6.10;2.80;;;15.00;99.90;;;;;;5076839;28;20036;-59
2022/07/17 04:40:42;;;;;;;6.25;3.20;;;15.10;99.90;;;;;;5076651;28;20047;-59
2022/07/17 04:43:08;;;;;;;4.90;3.00;;;15.30;99.90;;;;;;5076357;28;20032;-59
2022/07/17 04:45:34;;;;;;;5.68;2.80;;;15.50;99.90;;;;;;5078834;28;20040;-59
2022/07/17 04:48:00;;;;;;;5.72;3.10;;;15.40;99.90;;;;;;5080011;28;20033;-59
2022/07/17 04:50:26;;;;;;;5.78;2.95;;;15.50;99.90;;;;;;5079987;28;20028;-60
2022/07/17 04:52:52;;;;;;;6.05;3.10;;;15.40;99.90;;;;;;5079591;28;20028;-59
2022/07/17 04:55:17;;;;;;;4.88;2.78;;;15.50;99.90;;;;;;5078995;28;20470;-59
2022/07/17 04:57:44;;;;;;;6.18;3.17;;;15.60;99.90;;;;;;5080219;28;20040;-59
2022/07/17 05:00:11;;;;;;;5.57;2.72;;;15.70;99.90;;;;;;5079906;28;20032;-59
2022/07/17 05:02:37;;;;;;;8.52;2.95;;;15.70;99.90;;;;;;5080089;28;20035;-59
2022/07/17 05:05:03;;;;;;;5.68;2.70;;;15.60;99.90;;;;;;5079692;28;20029;-60
2022/07/17 05:07:29;;;;;;;5.70;2.85;;;15.60;99.90;;;;;;5079763;28;20029;-59
2022/07/17 05:09:55;;;;;;;3.03;2.70;;;15.60;99.90;;;;;;5078897;28;20133;-59
2022/07/17 05:12:21;;;;;;;5.60;2.97;;;15.60;99.90;;;;;;5079982;28;20033;-59
2022/07/17 05:14:46;;;;;;;4.85;2.90;;;15.70;99.90;;;;;;5079454;28;20033;-59
2022/07/17 05:17:12;;;;;;;9.45;3.60;;;15.90;99.90;;;;;;5062279;28;20032;-59
2022/07/17 05:19:38;;;;;;;7.43;2.97;;;16.00;99.90;;;;;;5079484;28;20036;-59
2022/07/17 05:22:04;;;;;;;6.45;3.17;;;16.10;99.90;;;;;;5079447;28;20024;-60
2022/07/17 05:24:32;;;;;;;7.78;2.80;;;16.10;99.90;;;;;;5079524;28;20044;-57
2022/07/17 05:26:57;;;;;;;5.20;2.65;;;16.20;99.90;;;;;;5079285;28;20036;-58
2022/07/17 05:29:23;;;;;;;5.75;2.97;;;16.20;99.90;;;;;;5079242;28;20047;-58
2022/07/17 05:31:49;;;;;;;4.40;2.60;;;16.20;99.90;;;;;;5079371;28;20352;-58
2022/07/17 05:34:15;;;;;;;4.47;2.80;;;16.20;99.90;;;;;;5079454;28;20075;-58
2022/07/17 05:36:41;;;;;;;5.07;2.72;;;16.20;99.90;;;;;;5079131;28;20032;-58
2022/07/17 05:39:08;;;;;;;5.63;2.90;;;16.40;99.90;;;;;;5078641;28;20068;-58
2022/07/17 05:41:34;;;;;;;6.68;2.53;;;16.50;99.90;;;;;;5079034;28;20037;-58
2022/07/17 05:44:00;;;;;;;6.55;2.72;;;16.50;99.90;;;;;;5079304;28;20429;-58
2022/07/17 05:46:26;;;;;;;6.35;2.50;;;16.50;99.90;;;;;;5078192;28;20116;-58
2022/07/17 05:48:51;;;;;;;5.63;2.80;;;16.50;99.90;;;;;;5078820;28;20332;-59
2022/07/17 05:51:17;;;;;;;7.07;2.70;;;16.60;99.90;;;;;;5078850;28;20169;-59
2022/07/17 05:53:43;;;;;;;4.10;2.33;;;16.50;99.90;;;;;;5078652;28;20059;-59
2022/07/17 05:56:09;;;;;;;8.27;2.65;;;16.40;99.90;;;;;;5077619;28;20062;-59
2022/07/17 05:58:35;;;;;;;6.65;2.40;;;16.50;99.90;;;;;;5079096;28;20317;-59
2022/07/17 06:01:01;;;;;;;4.72;2.83;;;16.70;99.90;;;;;;5078593;28;20040;-59
2022/07/17 06:03:26;;;;;;;4.95;2.75;;;16.80;99.90;;;;;;5077916;28;20041;-59
2022/07/17 06:05:52;;;;;;;6.13;2.42;;;16.90;99.90;;;;;;5077739;28;20051;-59
2022/07/17 06:08:18;;;;;;;6.30;2.50;;;17.00;99.90;;;;;;5078557;28;20384;-59
2022/07/17 06:10:44;;;;;;;6.90;2.60;;;17.10;99.90;;;;;;5079123;28;20115;-59
2022/07/17 06:13:09;;;;;;;5.07;2.60;;;17.20;99.90;;;;;;5078551;28;20119;-59
2022/07/17 06:15:35;;;;;;;7.63;2.60;;;17.30;99.90;;;;;;5078497;28;20037;-60
2022/07/17 06:18:04;;;;;;;3.30;2.17;;;17.40;99.90;;;;;;5078874;28;20028;-59
2022/07/17 06:20:30;;;;;;;6.53;2.40;;;17.50;99.90;;;;;;5078360;28;20029;-59
2022/07/17 06:22:56;;;;;;;5.65;2.63;;;17.50;99.90;;;;;;5078271;28;20040;-57
2022/07/17 06:25:23;;;;;;;2.85;2.00;;;17.60;99.90;;;;;;5077967;28;20101;-58
2022/07/17 06:27:48;;;;;;;6.55;2.30;;;17.70;99.90;;;;;;5078195;28;20033;-58
2022/07/17 06:30:15;;;;;;;3.65;2.22;;;17.80;99.90;;;;;;5078125;28;20036;-58
2022/07/17 06:32:42;;;;;;;6.15;2.15;;;17.80;99.90;;;;;;5078664;28;20348;-58
2022/07/17 06:35:08;;;;;;;5.05;2.10;;;17.90;99.90;;;;;;5078236;28;20115;-58
2022/07/17 06:37:35;;;;;;;4.47;1.92;;;17.80;99.90;;;;;;5078299;28;20073;-57
2022/07/17 06:40:01;;;;;;;3.80;1.83;;;18.00;99.90;;;;;;5077866;28;20423;-58
2022/07/17 06:42:27;;;;;;;4.93;1.80;;;18.20;99.90;;;;;;5077489;28;20359;-58
2022/07/17 06:44:53;;;;;;;5.57;1.70;;;18.30;99.90;;;;;;5077748;28;20087;-58
2022/07/17 06:47:19;;;;;;;3.40;1.67;;;18.40;99.90;;;;;;5078444;28;20068;-57
2022/07/17 06:49:45;;;;;;;4.18;1.85;;;18.50;99.90;;;;;;5077695;28;20041;-58
2022/07/17 06:52:10;;;;;;;4.30;1.40;;;18.60;99.90;;;;;;5060288;28;20028;-58
2022/07/17 06:54:36;;;;;;;5.18;1.40;;;18.70;99.90;;;;;;5077769;28;20094;-59
2022/07/17 06:57:02;;;;;;;2.97;1.40;;;18.70;99.90;;;;;;5077488;28;20360;-59
2022/07/17 06:59:28;;;;;;;5.43;1.73;;;18.80;99.90;;;;;;5077462;28;20345;-58
2022/07/17 07:01:54;;;;;;;3.65;1.27;;;18.90;99.90;;;;;;5077511;28;20079;-59
2022/07/17 07:04:20;;;;;;;6.35;1.80;;;19.00;99.90;;;;;;5077494;28;20351;-57
2022/07/17 07:06:46;;;;;;;5.90;1.33;;;19.00;99.90;;;;;;5077003;28;20024;-60
2022/07/17 07:09:11;;;;;;;5.65;1.63;;;19.10;99.90;;;;;;5077214;28;20120;-59
2022/07/17 07:11:38;;;;;;;3.90;1.38;;;19.20;99.90;;;;;;5077357;28;20119;-59
2022/07/17 07:14:05;;;;;;;5.53;1.30;;;19.30;99.90;;;;;;5077165;28;20035;-59
2022/07/17 07:16:31;;;;;;;15.80;8.90;;;19.40;99.90;;;;;;5076959;28;20101;-60
2022/07/17 07:18:56;;;;;;;4.68;1.65;;;19.50;99.90;;;;;;5077432;28;20123;-59
2022/07/17 07:21:24;;;;;;;3.40;1.50;;;19.50;99.90;;;;;;5043311;28;20056;-59
2022/07/17 07:23:50;;;;;;;4.88;1.67;;;19.60;99.90;;;;;;5077185;28;20035;-59
2022/07/17 07:26:16;;;;;;;5.38;1.50;;;19.70;99.90;;;;;;5076414;28;20044;-57
2022/07/17 07:28:42;;;;;;;4.93;1.63;;;19.90;99.90;;;;;;5077071;28;20404;-58
2022/07/17 07:31:08;;;;;;;2.15;1.08;;;20.00;99.90;;;;;;5076441;28;20062;-58
2022/07/17 07:33:34;;;;;;;3.58;1.33;;;20.00;99.90;;;;;;5077035;28;20020;-58
2022/07/17 07:36:00;;;;;;;3.50;1.10;;;20.10;99.90;;;;;;5077653;28;20132;-58
2022/07/17 07:38:25;;;;;;;4.03;1.30;;;20.10;99.90;;;;;;5076921;28;20426;-59
2022/07/17 07:40:51;;;;;;;6.78;1.33;;;20.20;99.90;;;;;;5076984;28;20094;-58
2022/07/17 07:43:17;;;;;;;5.38;1.17;;;19.90;99.90;;;;;;5076259;28;20041;-57
2022/07/17 07:45:43;;;;;;;2.53;1.05;;;20.00;99.90;;;;;;5076852;28;20036;-57
2022/07/17 07:48:09;;;;;;;3.13;1.45;;;19.90;99.90;;;;;;5077343;28;20427;-58
2022/07/17 07:50:36;;;;;;;5.13;1.10;;;20.00;99.90;;;;;;5076831;28;20086;-58
2022/07/17 07:53:02;;;;;;;3.60;0.95;;;20.20;99.90;;;;;;5076861;28;20093;-59
2022/07/17 07:55:27;;;;;;;1.52;0.73;;;20.20;99.90;;;;;;5076697;28;20123;-59
2022/07/17 07:58:06;;;;;;;3.28;1.00;;;20.30;99.90;;;;;;5076752;28;20428;-60
2022/07/17 08:00:32;;;;;;;2.78;0.90;;;20.00;99.90;;;;;;5076243;28;20104;-61
2022/07/17 08:02:58;;;;;;;6.20;1.15;;;20.00;99.90;;;;;;5075932;28;20115;-59
2022/07/17 08:05:24;;;;;;;12.10;1.20;;;20.20;99.90;;;;;;5076595;28;20055;-59
2022/07/17 08:07:50;;;;;;;3.85;1.10;;;20.30;99.90;;;;;;5077242;28;20024;-58
2022/07/17 08:10:15;;;;;;;2.85;0.90;;;20.10;99.90;;;;;;5076657;28;20036;-58
2022/07/17 08:12:41;;;;;;;5.80;1.38;;;20.20;99.90;;;;;;5077242;28;20054;-59
2022/07/17 08:15:07;;;;;;;4.53;1.00;;;20.40;99.90;;;;;;5076609;28;20488;-58
2022/07/17 08:17:33;;;;;;;4.63;1.20;;;20.40;99.90;;;;;;5076665;28;20052;-61
2022/07/17 08:19:59;;;;;;;3.00;0.95;;;20.60;99.90;;;;;;5078383;28;20056;-59
2022/07/17 08:22:25;;;;;;;5.80;0.90;;;20.50;99.90;;;;;;5080648;28;20071;-59
2022/07/17 08:24:50;;;;;;;4.05;0.85;;;20.70;99.90;;;;;;5080512;28;20056;-58
2022/07/17 08:27:16;;;;;;;5.82;1.10;;;20.90;99.90;;;;;;5080860;28;20033;-58
2022/07/17 08:29:42;;;;;;;3.28;0.93;;;21.10;99.90;;;;;;5080427;28;20032;-58
2022/07/17 08:32:08;;;;;;;4.20;0.98;;;21.20;99.90;;;;;;5080605;28;20094;-59
2022/07/17 08:34:34;;;;;;;6.50;1.00;;;21.20;99.90;;;;;;5080444;28;20135;-58
2022/07/17 08:37:00;;;;;;;3.58;0.82;;;21.20;99.90;;;;;;5063054;28;20094;-58
2022/07/17 08:39:25;;;;;;;5.18;1.20;;;21.40;99.90;;;;;;5080304;28;20119;-59
2022/07/17 08:41:51;;;;;;;3.55;0.85;;;21.60;99.90;;;;;;5080073;28;20036;-59
2022/07/17 08:44:17;;;;;;;2.03;0.90;;;21.60;99.90;;;;;;5080104;28;20281;-58
2022/07/17 08:46:43;;;;;;;2.55;0.90;;;21.70;99.90;;;;;;5080577;28;20085;-58
2022/07/17 08:49:11;;;;;;;2.90;0.98;;;21.70;99.90;;;;;;5079918;28;20028;-58
2022/07/17 08:51:37;;;;;;;4.05;1.25;;;21.80;99.90;;;;;;5079916;28;20031;-58
2022/07/17 08:54:03;;;;;;;3.65;0.80;;;21.80;99.90;;;;;;5079933;28;20029;-59
2022/07/17 08:56:29;;;;;;;4.60;0.80;;;21.90;99.90;;;;;;5079692;28;20431;-58
2022/07/17 08:58:55;;;;;;;3.53;0.80;;;22.10;99.90;;;;;;5079768;28;20094;-58
2022/07/17 09:01:22;;;;;;;3.45;0.90;;;22.20;99.90;;;;;;5079873;28;20032;-58
2022/07/17 09:04:06;;;;;;;3.90;0.90;;;22.20;99.90;;;;;;5079039;28;20052;-58
2022/07/17 09:06:33;;;;;;;1.73;0.80;;;22.00;99.90;;;;;;5079720;28;20320;-59
2022/07/17 09:09:06;;;;;;;2.42;0.93;;;21.90;99.90;;;;;;5079745;28;20035;-58
2022/07/17 09:12:04;;;;;;;1.88;0.82;;;21.80;99.90;;;;;;5079679;28;20112;-58
2022/07/17 09:14:41;;;;;;;2.97;0.93;;;21.90;99.90;;;;;;5079424;28;20036;-58
2022/07/17 09:17:11;;;;;;;4.32;1.10;;;22.10;99.90;;;;;;5078862;28;20043;-58
2022/07/17 09:19:40;;;;;;;1.83;0.98;;;22.30;99.90;;;;;;5079660;28;20116;-57
2022/07/17 09:22:16;;;;;;;2.08;1.00;;;22.40;99.90;;;;;;5079275;28;20044;-58
2022/07/17 09:24:54;;;;;;;2.03;0.77;;;22.50;99.90;;;;;;5078885;28;20036;-59
2022/07/17 09:27:23;;;;;;;1.92;0.88;;;22.70;99.90;;;;;;5079350;28;20040;-58
2022/07/17 09:29:59;;;;;;;2.13;0.90;;;22.70;99.90;;;;;;5079241;28;20404;-58
2022/07/17 09:32:30;;;;;;;3.95;1.10;;;22.80;99.90;;;;;;5079395;28;20038;-58
2022/07/17 09:34:59;;;;;;;3.17;1.00;;;22.70;99.90;;;;;;5078629;28;20098;-59
2022/07/17 09:37:26;;;;;;;1.92;0.93;;;22.30;99.90;;;;;;5079810;28;20037;-58
2022/07/17 09:39:55;;;;;;;2.08;0.93;;;22.20;99.90;;;;;;5079134;28;20032;-58
2022/07/17 09:42:23;;;;;;;1.65;1.10;;;22.40;99.90;;;;;;5079124;28;20063;-58
2022/07/17 09:45:08;;;;;;;1.50;1.08;;;22.70;99.90;;;;;;5078980;28;20052;-58
2022/07/17 09:47:36;;;;;;;2.20;1.20;;;22.30;99.90;;;;;;5079661;28;20029;-58
2022/07/17 09:50:04;;;;;;;1.40;1.00;;;22.30;99.90;;;;;;5078954;28;20017;-58
2022/07/17 09:52:34;;;;;;;2.55;1.08;;;22.10;99.90;;;;;;5078960;28;20107;-58
2022/07/17 09:55:01;;;;;;;1.33;1.08;;;22.30;99.90;;;;;;5078167;28;20025;-58
2022/07/17 09:57:30;;;;;;;3.25;1.23;;;22.60;99.90;;;;;;5078730;28;20123;-58
2022/07/17 10:00:00;;;;;;;3.28;1.00;;;23.00;99.90;;;;;;5078801;28;20021;-58
2022/07/17 10:02:26;;;;;;;3.10;1.20;;;23.00;99.90;;;;;;5078743;28;20081;-58
2022/07/17 10:04:52;;;;;;;2.53;1.10;;;22.80;99.90;;;;;;5078493;28;20124;-58
2022/07/17 10:07:19;;;;;;;6.25;1.60;;;22.80;99.90;;;;;;5078614;28;20396;-59
2022/07/17 10:09:46;;;;;;;2.35;1.20;;;23.30;99.90;;;;;;5078474;28;20043;-59
2022/07/17 10:12:13;;;;;;;4.30;1.20;;;23.70;99.90;;;;;;5077804;28;20040;-58
2022/07/17 10:14:41;;;;;;;3.53;1.20;;;23.80;99.90;;;;;;5078386;28;20033;-60
2022/07/17 10:17:12;;;;;;;2.75;1.48;;;23.90;99.90;;;;;;5078364;28;20050;-58
2022/07/17 10:19:49;;;;;;;2.45;1.20;;;23.90;99.90;;;;;;5078335;28;20363;-58
2022/07/17 10:22:15;;;;;;;4.25;1.30;;;24.10;99.90;;;;;;5078232;28;20032;-58
2022/07/17 10:24:55;;;;;;;2.97;1.23;;;24.50;99.90;;;;;;5078315;28;20055;-59
2022/07/17 10:27:26;;;;;;;4.07;2.00;;;24.70;99.90;;;;;;5078362;28;20040;-58
2022/07/17 10:30:04;;;;;;;2.22;1.23;;;24.40;99.90;;;;;;5078117;28;20328;-58
2022/07/17 10:32:30;;;;;;;4.43;1.40;;;23.80;99.90;;;;;;5078342;28;20021;-58
2022/07/17 10:35:06;;;;;;;1.73;1.20;;;23.70;99.90;;;;;;5077979;28;20068;-59
2022/07/17 10:37:41;;;;;;;2.47;1.35;;;24.00;99.90;;;;;;5078014;28;20041;-58
2022/07/17 10:40:17;;;;;;;3.33;1.52;;;24.40;99.90;;;;;;5078009;28;20024;-60
2022/07/17 10:42:47;;;;;;;1.52;1.10;;;24.70;99.90;;;;;;5076989;28;20357;-58
2022/07/17 10:45:18;;;;;;;2.53;1.50;;;24.90;99.90;;;;;;5077833;28;20173;-58
2022/07/17 10:47:59;;;;;;;2.70;1.30;;;25.20;99.90;;;;;;5077837;28;20349;-58
2022/07/17 10:50:26;;;;;;;3.03;1.75;;;25.00;99.90;;;;;;5077654;28;20028;-59
2022/07/17 10:53:08;;;;;;;3.58;1.50;;;25.20;99.90;;;;;;5078264;28;20044;-59
2022/07/17 10:55:36;;;;;;;1.93;1.43;;;25.40;99.90;;;;;;5077641;28;20299;-58
2022/07/17 10:58:03;;;;;;;3.55;1.50;;;25.50;99.90;;;;;;5077594;28;20307;-59
2022/07/17 11:00:29;;;;;;;2.67;1.50;;;25.30;99.90;;;;;;5077789;28;20303;-59
2022/07/17 11:02:55;;;;;;;2.50;1.52;;;25.60;99.90;;;;;;5076735;28;20032;-60
2022/07/17 11:05:22;;;;;;;4.22;1.77;;;25.40;99.90;;;;;;5077347;28;20098;-59
2022/07/17 11:07:57;;;;;;;2.35;1.70;;;25.30;99.90;;;;;;5077314;28;20119;-58
2022/07/17 11:10:26;;;;;;;4.00;1.80;;;25.70;99.90;;;;;;5077254;28;20036;-59
2022/07/17 11:12:53;;;;;;;4.00;1.52;;;27.40;99.90;;;;;;5077861;28;20037;-60
2022/07/17 11:15:19;;;;;;;2.22;1.70;;;29.20;99.90;;;;;;5077237;28;20335;-59
2022/07/17 11:17:47;;;;;;;2.67;1.45;;;30.60;99.60;;;;;;5060041;28;20044;-59
2022/07/17 11:20:13;;;;;;;3.83;1.60;;;30.80;95.90;;;;;;5077220;28;20049;-59
2022/07/17 11:22:39;;;;;;;2.47;1.48;;;31.40;92.50;;;;;;5077191;28;20044;-59
2022/07/17 11:25:06;;;;;;;3.85;1.65;;;31.50;91.00;;;;;;5076967;28;20040;-60
2022/07/17 11:27:32;;;;;;;5.28;1.90;;;31.70;90.30;;;;;;5077115;28;20028;-59
2022/07/17 11:29:59;;;;;;;3.38;2.05;;;32.30;85.90;;;;;;5077048;28;20029;-59
2022/07/17 11:32:33;;;;;;;2.25;1.95;;;30.00;88.80;;;;;;5077823;28;20325;-59
2022/07/17 11:34:59;;;;;;;7.43;2.28;;;28.60;92.00;;;;;;5077037;28;20024;-58
2022/07/17 11:37:29;;;;;;;3.60;2.03;;;29.30;90.60;;;;;;5077004;28;20123;-59
2022/07/17 11:39:56;;;;;;;3.45;2.00;;;31.10;87.50;;;;;;5076932;28;20043;-59
2022/07/17 11:42:23;;;;;;;1.98;1.88;;;32.50;82.00;;;;;;5077029;28;20029;-59
2022/07/17 11:44:55;;;;;;;2.42;2.15;;;33.40;77.50;;;;;;5076920;28;20055;-59
2022/07/17 11:47:26;;;;;;;2.40;2.15;;;34.50;73.80;;;;;;5076836;28;20328;-60
2022/07/17 11:50:03;;;;;;;2.22;1.98;;;34.40;67.00;;;;;;5076971;28;20100;-59
2022/07/17 11:52:43;;;;;;;3.45;2.30;;;34.10;65.20;;;;;;5076332;28;20051;-59
2022/07/17 11:55:10;;;;;;;4.15;2.15;;;35.20;63.00;;;;;;5076653;28;20028;-60
2022/07/17 11:57:44;;;;;;;3.10;2.17;;;34.20;63.30;;;;;;5075923;28;20098;-59
2022/07/17 12:00:11;;;;;;;4.05;1.80;;;32.90;65.10;;;;;;5077201;28;20150;-59
2022/07/17 12:02:37;;;;;;;2.78;2.22;;;33.60;64.80;;;;;;5077261;28;20123;-60
2022/07/17 12:05:03;;;;;;;3.72;2.70;;;34.10;62.90;;;;;;5076647;28;20440;-59
2022/07/17 12:07:47;;;;;;;2.65;1.95;;;34.90;59.20;;;;;;5076976;28;20040;-60
2022/07/17 12:10:22;;;;;;;2.55;2.00;;;36.00;58.30;;;;;;5076622;28;20029;-60
2022/07/17 12:12:53;;;;;;;2.20;2.00;;;36.00;57.40;;;;;;5076665;28;20293;-59
2022/07/17 12:15:19;;;;;;;2.30;2.10;;;36.50;56.00;;;;;;5076712;28;20115;-59
2022/07/17 12:17:45;;;;;;;2.28;2.08;;;37.40;55.20;;;;;;5077181;28;20332;-60
2022/07/17 12:20:11;;;;;;;3.92;2.15;;;37.70;52.30;;;;;;5076604;28;20123;-59
2022/07/17 12:22:48;;;;;;;2.25;1.90;;;38.30;50.50;;;;;;5075861;28;20304;-59
2022/07/17 12:25:28;;;;;;;2.03;1.75;;;38.80;49.20;;;;;;5076421;28;20029;-60
2022/07/17 12:27:54;;;;;;;3.38;1.98;;;39.20;49.00;;;;;;5077045;28;20071;-60
2022/07/17 12:30:20;;;;;;;2.15;1.92;;;38.90;46.50;;;;;;5075758;28;20115;-60
2022/07/17 12:32:49;;;;;;;2.50;2.30;;;39.20;46.80;;;;;;5076444;28;20043;-60
2022/07/17 12:35:15;;;;;;;2.83;2.15;;;37.40;46.90;;;;;;5075675;28;20041;-59
2022/07/17 12:37:41;;;;;;;2.70;2.13;;;36.80;48.00;;;;;;5076466;28;20285;-60
2022/07/17 12:40:08;;;;;;;2.95;2.42;;;37.30;47.00;;;;;;5076415;28;20032;-59
2022/07/17 12:42:34;;;;;;;2.13;1.83;;;38.60;45.00;;;;;;5076459;28;20025;-60
2022/07/17 12:45:01;;;;;;;3.78;2.10;;;39.40;44.30;;;;;;5076309;28;20078;-59
2022/07/17 12:47:27;;;;;;;4.30;2.30;;;39.50;43.80;;;;;;5076799;28;20024;-59